sensor_id;sensor_type;location;lat;lon;timestamp;pressure;altitude;pressure_sealevel;temperature;humidity
43820;BME280;67762;52.476;6.046;2023-05-23T00:01:46;101723.91;;;14.62;84.91
43820;BME280;67762;52.476;6.046;2023-05-23T00:04:11;101725.25;;;14.58;84.98
43820;BME280;67762;52.476;6.046;2023-05-23T00:06:43;101730.47;;;14.51;84.87
43820;BME280;67762;52.476;6.046;2023-05-23T00:09:15;101733.16;;;14.43;85.11
43820;BME280;67762;52.476;6.046;2023-05-23T00:11:41;101731.25;;;14.28;85.79
43820;BME280;67762;52.476;6.046;2023-05-23T00:14:15;101737.13;;;14.15;86.36
43820;BME280;67762;52.476;6.046;2023-05-23T00:19:12;101740.09;;;13.96;nan
43820;BME280;67762;52.476;6.046;2023-05-23T00:21:46;101745.28;;;13.89;nan
43820;BME280;67762;52.476;6.046;2023-05-23T00:24:15;101749.44;;;13.84;nan
43820;BME280;67762;52.476;6.046;2023-05-23T00:26:45;101749.75;;;13.81;nan
43820;BME280;67762;52.476;6.046;2023-05-23T00:29:11;101761.00;;;13.76;nan
43820;BME280;67762;52.476;6.046;2023-05-23T00:31:43;101752.28;;;13.74;nan
43820;BME280;67762;52.476;6.046;2023-05-23T00:34:14;101757.25;;;13.69;nan
43820;BME280;67762;52.476;6.046;2023-05-23T00:36:42;101760.63;;;13.63;nan
43820;BME280;67762;52.476;6.046;2023-05-23T00:39:08;101765.09;;;13.55;nan
43820;BME280;67762;52.476;6.046;2023-05-23T00:41:41;101767.56;;;13.48;nan
43820;BME280;67762;52.476;6.046;2023-05-23T00:44:07;101753.94;;;13.41;nan
43820;BME280;67762;52.476;6.046;2023-05-23T00:46:34;101764.84;;;13.40;nan
43820;BME280;67762;52.476;6.046;2023-05-23T00:49:00;101766.69;;;13.39;nan
43820;BME280;67762;52.476;6.046;2023-05-23T00:51:26;101760.47;;;13.39;nan
43820;BME280;67762;52.476;6.046;2023-05-23T00:53:52;101760.47;;;13.39;nan
43820;BME280;67762;52.476;6.046;2023-05-23T00:56:19;101762.16;;;13.40;nan
43820;BME280;67762;52.476;6.046;2023-05-23T00:58:46;101772.03;;;13.39;nan
43820;BME280;67762;52.476;6.046;2023-05-23T01:01:14;101776.75;;;13.37;nan
43820;BME280;67762;52.476;6.046;2023-05-23T01:03:39;101766.00;;;13.37;nan
43820;BME280;67762;52.476;6.046;2023-05-23T01:06:05;101776.41;;;13.40;nan
43820;BME280;67762;52.476;6.046;2023-05-23T01:08:31;101772.72;;;13.41;nan
43820;BME280;67762;52.476;6.046;2023-05-23T01:11:00;101770.88;;;13.42;nan
43820;BME280;67762;52.476;6.046;2023-05-23T01:13:39;101779.59;;;13.44;nan
43820;BME280;67762;52.476;6.046;2023-05-23T01:16:26;101766.06;;;13.45;nan
43820;BME280;67762;52.476;6.046;2023-05-23T01:19:04;101779.78;;;13.42;nan
43820;BME280;67762;52.476;6.046;2023-05-23T01:21:35;101777.41;;;13.39;nan
43820;BME280;67762;52.476;6.046;2023-05-23T01:29:23;101782.56;;;13.33;nan
43820;BME280;67762;52.476;6.046;2023-05-23T01:31:52;101780.56;;;13.35;nan
43820;BME280;67762;52.476;6.046;2023-05-23T01:34:20;101781.44;;;13.35;nan
43820;BME280;67762;52.476;6.046;2023-05-23T01:36:48;101786.78;;;13.35;nan
43820;BME280;67762;52.476;6.046;2023-05-23T01:39:14;101784.78;;;13.37;nan
43820;BME280;67762;52.476;6.046;2023-05-23T01:41:40;101789.97;;;13.39;nan
43820;BME280;67762;52.476;6.046;2023-05-23T01:44:06;101782.78;;;13.39;nan
43820;BME280;67762;52.476;6.046;2023-05-23T01:46:33;101785.75;;;13.36;nan
43820;BME280;67762;52.476;6.046;2023-05-23T01:49:00;101795.50;;;13.37;nan
43820;BME280;67762;52.476;6.046;2023-05-23T01:51:27;101795.50;;;13.37;nan
43820;BME280;67762;52.476;6.046;2023-05-23T01:53:53;101800.56;;;13.40;nan
43820;BME280;67762;52.476;6.046;2023-05-23T01:56:19;101795.88;;;13.42;nan
43820;BME280;67762;52.476;6.046;2023-05-23T01:58:46;101798.38;;;13.44;nan
43820;BME280;67762;52.476;6.046;2023-05-23T02:01:12;101791.88;;;13.46;nan
43820;BME280;67762;52.476;6.046;2023-05-23T02:03:38;101801.75;;;13.46;nan
43820;BME280;67762;52.476;6.046;2023-05-23T02:06:03;101805.09;;;13.48;nan
43820;BME280;67762;52.476;6.046;2023-05-23T02:08:29;101806.81;;;13.49;nan
43820;BME280;67762;52.476;6.046;2023-05-23T02:10:55;101812.97;;;13.49;nan
43820;BME280;67762;52.476;6.046;2023-05-23T02:13:21;101813.69;;;13.52;nan
43820;BME280;67762;52.476;6.046;2023-05-23T02:15:46;101807.31;;;13.53;nan
43820;BME280;67762;52.476;6.046;2023-05-23T02:18:12;101820.72;;;13.53;nan
43820;BME280;67762;52.476;6.046;2023-05-23T02:20:41;101818.72;;;13.55;nan
43820;BME280;67762;52.476;6.046;2023-05-23T02:23:08;101829.13;;;13.58;nan
43820;BME280;67762;52.476;6.046;2023-05-23T02:25:36;101827.59;;;13.55;nan
43820;BME280;67762;52.476;6.046;2023-05-23T02:28:05;101820.56;;;13.54;nan
43820;BME280;67762;52.476;6.046;2023-05-23T02:30:31;101832.28;;;13.53;nan
43820;BME280;67762;52.476;6.046;2023-05-23T02:32:56;101842.16;;;13.53;nan
43820;BME280;67762;52.476;6.046;2023-05-23T02:35:23;101839.66;;;13.51;nan
43820;BME280;67762;52.476;6.046;2023-05-23T02:37:49;101836.13;;;13.51;nan
43820;BME280;67762;52.476;6.046;2023-05-23T02:40:14;101840.50;;;13.52;nan
43820;BME280;67762;52.476;6.046;2023-05-23T02:42:40;101846.84;;;13.51;nan
43820;BME280;67762;52.476;6.046;2023-05-23T02:45:06;101848.69;;;13.50;nan
43820;BME280;67762;52.476;6.046;2023-05-23T02:47:33;101847.84;;;13.49;nan
43820;BME280;67762;52.476;6.046;2023-05-23T02:49:58;101853.38;;;13.48;nan
43820;BME280;67762;52.476;6.046;2023-05-23T02:52:24;101840.81;;;13.48;nan
43820;BME280;67762;52.476;6.046;2023-05-23T02:54:49;101854.22;;;13.48;nan
43820;BME280;67762;52.476;6.046;2023-05-23T02:57:15;101853.19;;;13.49;nan
43820;BME280;67762;52.476;6.046;2023-05-23T02:59:41;101863.59;;;13.53;nan
43820;BME280;67762;52.476;6.046;2023-05-23T03:02:07;101849.38;;;13.52;nan
43820;BME280;67762;52.476;6.046;2023-05-23T03:04:33;101852.06;;;13.52;nan
43820;BME280;67762;52.476;6.046;2023-05-23T03:06:58;101847.69;;;13.51;nan
43820;BME280;67762;52.476;6.046;2023-05-23T03:09:24;101846.72;;;13.52;nan
43820;BME280;67762;52.476;6.046;2023-05-23T03:11:50;101853.06;;;13.51;nan
43820;BME280;67762;52.476;6.046;2023-05-23T03:14:16;101845.00;;;13.51;nan
43820;BME280;67762;52.476;6.046;2023-05-23T03:16:42;101850.38;;;13.51;nan
43820;BME280;67762;52.476;6.046;2023-05-23T03:19:07;101861.09;;;13.51;nan
43820;BME280;67762;52.476;6.046;2023-05-23T03:21:33;101862.09;;;13.50;nan
43820;BME280;67762;52.476;6.046;2023-05-23T03:24:00;101856.91;;;13.48;nan
43820;BME280;67762;52.476;6.046;2023-05-23T03:26:28;101863.25;;;13.47;nan
43820;BME280;67762;52.476;6.046;2023-05-23T03:28:55;101868.78;;;13.46;nan
43820;BME280;67762;52.476;6.046;2023-05-23T03:31:21;101861.59;;;13.46;nan
43820;BME280;67762;52.476;6.046;2023-05-23T03:33:46;101858.06;;;13.46;nan
43820;BME280;67762;52.476;6.046;2023-05-23T03:36:12;101861.72;;;13.45;nan
43820;BME280;67762;52.476;6.046;2023-05-23T03:38:37;101859.34;;;13.42;nan
43820;BME280;67762;52.476;6.046;2023-05-23T03:41:03;101863.06;;;13.41;nan
43820;BME280;67762;52.476;6.046;2023-05-23T03:43:29;101860.50;;;13.39;nan
43820;BME280;67762;52.476;6.046;2023-05-23T03:45:55;101864.19;;;13.38;nan
43820;BME280;67762;52.476;6.046;2023-05-23T03:48:20;101868.03;;;13.36;nan
43820;BME280;67762;52.476;6.046;2023-05-23T03:50:47;101871.72;;;13.35;nan
43820;BME280;67762;52.476;6.046;2023-05-23T03:53:12;101873.88;;;13.31;nan
43820;BME280;67762;52.476;6.046;2023-05-23T03:55:38;101877.72;;;13.29;nan
43820;BME280;67762;52.476;6.046;2023-05-23T03:58:04;101874.78;;;13.22;nan
43820;BME280;67762;52.476;6.046;2023-05-23T04:00:31;101880.63;;;13.18;nan
43820;BME280;67762;52.476;6.046;2023-05-23T04:02:58;101883.63;;;13.15;nan
43820;BME280;67762;52.476;6.046;2023-05-23T04:05:23;101890.28;;;13.11;nan
43820;BME280;67762;52.476;6.046;2023-05-23T04:07:49;101885.75;;;13.11;nan
43820;BME280;67762;52.476;6.046;2023-05-23T04:10:16;101876.78;;;13.03;nan
43820;BME280;67762;52.476;6.046;2023-05-23T04:12:43;101882.44;;;13.00;nan
43820;BME280;67762;52.476;6.046;2023-05-23T04:15:12;101892.78;;;12.95;nan
43820;BME280;67762;52.476;6.046;2023-05-23T04:17:49;101886.44;;;12.96;nan
43820;BME280;67762;52.476;6.046;2023-05-23T04:20:16;101901.66;;;12.95;nan
43820;BME280;67762;52.476;6.046;2023-05-23T04:22:42;101903.38;;;12.96;nan
43820;BME280;67762;52.476;6.046;2023-05-23T04:25:08;101907.88;;;12.96;nan
43820;BME280;67762;52.476;6.046;2023-05-23T04:27:39;101916.03;;;12.94;nan
43820;BME280;67762;52.476;6.046;2023-05-23T04:30:06;101909.88;;;12.94;nan
43820;BME280;67762;52.476;6.046;2023-05-23T04:32:34;101918.03;;;12.92;nan
43820;BME280;67762;52.476;6.046;2023-05-23T04:35:01;101919.19;;;12.89;nan
43820;BME280;67762;52.476;6.046;2023-05-23T04:37:27;101922.34;;;12.85;nan
43820;BME280;67762;52.476;6.046;2023-05-23T04:39:53;101911.09;;;12.81;nan
43820;BME280;67762;52.476;6.046;2023-05-23T04:42:41;101925.94;;;12.76;nan
43820;BME280;67762;52.476;6.046;2023-05-23T04:45:27;101928.91;;;12.73;nan
43820;BME280;67762;52.476;6.046;2023-05-23T04:48:01;101919.16;;;12.72;nan
43820;BME280;67762;52.476;6.046;2023-05-23T04:50:43;101933.03;;;12.67;nan
43820;BME280;67762;52.476;6.046;2023-05-23T04:53:12;101932.19;;;12.67;nan
43820;BME280;67762;52.476;6.046;2023-05-23T04:55:38;101946.03;;;12.62;nan
43820;BME280;67762;52.476;6.046;2023-05-23T04:58:06;101958.56;;;12.62;nan
43820;BME280;67762;52.476;6.046;2023-05-23T05:00:32;101951.69;;;12.59;nan
43820;BME280;67762;52.476;6.046;2023-05-23T05:02:59;101959.16;;;12.56;nan
43820;BME280;67762;52.476;6.046;2023-05-23T05:05:27;101975.41;;;12.54;nan
43820;BME280;67762;52.476;6.046;2023-05-23T05:07:53;101953.97;;;12.54;nan
43820;BME280;67762;52.476;6.046;2023-05-23T05:10:19;101963.66;;;12.55;nan
43820;BME280;67762;52.476;6.046;2023-05-23T05:12:45;101953.69;;;12.57;nan
43820;BME280;67762;52.476;6.046;2023-05-23T05:15:15;101958.31;;;12.55;nan
43820;BME280;67762;52.476;6.046;2023-05-23T05:17:44;101971.19;;;12.52;nan
43820;BME280;67762;52.476;6.046;2023-05-23T05:20:12;101969.78;;;12.48;nan
43820;BME280;67762;52.476;6.046;2023-05-23T05:22:38;101988.22;;;12.51;nan
43820;BME280;67762;52.476;6.046;2023-05-23T05:25:06;101996.94;;;12.53;nan
43820;BME280;67762;52.476;6.046;2023-05-23T05:27:32;101995.41;;;12.50;nan
43820;BME280;67762;52.476;6.046;2023-05-23T05:29:58;101984.31;;;12.45;nan
43820;BME280;67762;52.476;6.046;2023-05-23T05:32:31;102009.66;;;12.41;nan
43820;BME280;67762;52.476;6.046;2023-05-23T05:34:59;102004.66;;;12.38;nan
43820;BME280;67762;52.476;6.046;2023-05-23T05:37:27;102013.66;;;12.37;nan
43820;BME280;67762;52.476;6.046;2023-05-23T05:39:53;102014.63;;;12.36;nan
43820;BME280;67762;52.476;6.046;2023-05-23T05:42:20;102002.25;;;12.35;nan
43820;BME280;67762;52.476;6.046;2023-05-23T05:44:47;102017.47;;;12.35;nan
43820;BME280;67762;52.476;6.046;2023-05-23T05:47:14;102008.44;;;12.36;nan
43820;BME280;67762;52.476;6.046;2023-05-23T05:49:40;102014.78;;;12.35;nan
43820;BME280;67762;52.476;6.046;2023-05-23T05:52:07;102025.34;;;12.36;nan
43820;BME280;67762;52.476;6.046;2023-05-23T05:54:33;102038.72;;;12.36;nan
43820;BME280;67762;52.476;6.046;2023-05-23T05:56:59;102031.53;;;12.37;nan
43820;BME280;67762;52.476;6.046;2023-05-23T05:59:25;102037.56;;;12.39;nan
43820;BME280;67762;52.476;6.046;2023-05-23T06:01:51;102035.75;;;12.39;nan
43820;BME280;67762;52.476;6.046;2023-05-23T06:04:17;102041.28;;;12.38;nan
43820;BME280;67762;52.476;6.046;2023-05-23T06:06:43;102054.94;;;12.35;nan
43820;BME280;67762;52.476;6.046;2023-05-23T06:09:09;102059.16;;;12.27;nan
43820;BME280;67762;52.476;6.046;2023-05-23T06:11:35;102058.94;;;12.21;nan
43820;BME280;67762;52.476;6.046;2023-05-23T06:14:08;102049.66;;;12.15;nan
43820;BME280;67762;52.476;6.046;2023-05-23T06:16:39;102060.63;;;12.12;nan
43820;BME280;67762;52.476;6.046;2023-05-23T06:19:04;102064.00;;;12.14;nan
43820;BME280;67762;52.476;6.046;2023-05-23T06:21:30;102068.38;;;12.15;nan
43820;BME280;67762;52.476;6.046;2023-05-23T06:23:56;102072.88;;;12.15;nan
43820;BME280;67762;52.476;6.046;2023-05-23T06:26:23;102075.69;;;12.13;nan
43820;BME280;67762;52.476;6.046;2023-05-23T06:28:51;102070.66;;;12.10;nan
43820;BME280;67762;52.476;6.046;2023-05-23T06:31:16;102067.25;;;12.08;nan
43820;BME280;67762;52.476;6.046;2023-05-23T06:33:42;102066.28;;;12.09;nan
43820;BME280;67762;52.476;6.046;2023-05-23T06:36:09;102076.25;;;12.17;nan
43820;BME280;67762;52.476;6.046;2023-05-23T06:38:35;102087.34;;;12.31;nan
43820;BME280;67762;52.476;6.046;2023-05-23T06:41:00;102085.59;;;12.50;nan
43820;BME280;67762;52.476;6.046;2023-05-23T06:43:53;102088.91;;;12.71;nan
43820;BME280;67762;52.476;6.046;2023-05-23T06:46:22;102087.56;;;12.84;nan
43820;BME280;67762;52.476;6.046;2023-05-23T06:48:47;102097.94;;;12.97;nan
43820;BME280;67762;52.476;6.046;2023-05-23T06:51:13;102093.69;;;13.04;nan
43820;BME280;67762;52.476;6.046;2023-05-23T06:53:40;102081.56;;;13.10;nan
43820;BME280;67762;52.476;6.046;2023-05-23T06:56:06;102095.22;;;13.07;nan
43820;BME280;67762;52.476;6.046;2023-05-23T06:58:37;102094.28;;;12.98;nan
43820;BME280;67762;52.476;6.046;2023-05-23T07:01:03;102103.75;;;12.93;nan
43820;BME280;67762;52.476;6.046;2023-05-23T07:03:32;102109.41;;;12.89;nan
43820;BME280;67762;52.476;6.046;2023-05-23T07:06:02;102101.81;;;12.85;nan
43820;BME280;67762;52.476;6.046;2023-05-23T07:08:29;102109.44;;;12.80;nan
43820;BME280;67762;52.476;6.046;2023-05-23T07:10:58;102104.41;;;12.77;nan
43820;BME280;67762;52.476;6.046;2023-05-23T07:13:37;102123.84;;;12.69;nan
43820;BME280;67762;52.476;6.046;2023-05-23T07:16:03;102106.13;;;12.59;nan
43820;BME280;67762;52.476;6.046;2023-05-23T07:18:30;102118.72;;;12.39;nan
43820;BME280;67762;52.476;6.046;2023-05-23T07:20:56;102118.91;;;12.28;nan
43820;BME280;67762;52.476;6.046;2023-05-23T07:23:22;102125.25;;;12.27;nan
43820;BME280;67762;52.476;6.046;2023-05-23T07:25:51;102128.06;;;12.35;nan
43820;BME280;67762;52.476;6.046;2023-05-23T07:28:25;102139.69;;;12.53;nan
43820;BME280;67762;52.476;6.046;2023-05-23T07:30:53;102134.72;;;12.68;nan
43820;BME280;67762;52.476;6.046;2023-05-23T07:33:19;102140.47;;;12.82;nan
43820;BME280;67762;52.476;6.046;2023-05-23T07:35:46;102128.81;;;13.01;nan
43820;BME280;67762;52.476;6.046;2023-05-23T07:38:12;102135.72;;;13.31;nan
43820;BME280;67762;52.476;6.046;2023-05-23T07:40:37;102142.38;;;13.54;nan
43820;BME280;67762;52.476;6.046;2023-05-23T07:43:04;102136.63;;;13.67;nan
43820;BME280;67762;52.476;6.046;2023-05-23T07:45:30;102119.91;;;13.73;nan
43820;BME280;67762;52.476;6.046;2023-05-23T07:47:57;102138.22;;;13.77;nan
43820;BME280;67762;52.476;6.046;2023-05-23T07:50:22;102126.88;;;14.01;nan
43820;BME280;67762;52.476;6.046;2023-05-23T07:52:49;102118.56;;;14.30;nan
43820;BME280;67762;52.476;6.046;2023-05-23T07:55:20;102125.00;;;14.37;nan
43820;BME280;67762;52.476;6.046;2023-05-23T07:57:46;102130.88;;;14.32;nan
43820;BME280;67762;52.476;6.046;2023-05-23T08:00:12;102123.16;;;14.20;nan
43820;BME280;67762;52.476;6.046;2023-05-23T08:02:41;102128.47;;;13.94;nan
43820;BME280;67762;52.476;6.046;2023-05-23T08:05:12;102122.91;;;13.87;nan
43820;BME280;67762;52.476;6.046;2023-05-23T08:07:38;102129.25;;;14.04;nan
43820;BME280;67762;52.476;6.046;2023-05-23T08:10:05;102100.03;;;14.19;nan
43820;BME280;67762;52.476;6.046;2023-05-23T08:12:31;102129.69;;;13.99;nan
43820;BME280;67762;52.476;6.046;2023-05-23T08:15:07;102131.88;;;13.78;nan
43820;BME280;67762;52.476;6.046;2023-05-23T08:17:39;102131.03;;;13.60;nan
43820;BME280;67762;52.476;6.046;2023-05-23T08:20:06;102138.59;;;13.47;nan
43820;BME280;67762;52.476;6.046;2023-05-23T08:22:33;102134.06;;;13.47;nan
43820;BME280;67762;52.476;6.046;2023-05-23T08:24:59;102151.19;;;13.64;nan
43820;BME280;67762;52.476;6.046;2023-05-23T08:27:26;102152.78;;;13.75;nan
43820;BME280;67762;52.476;6.046;2023-05-23T08:29:56;102159.38;;;13.80;nan
43820;BME280;67762;52.476;6.046;2023-05-23T08:32:22;102159.00;;;14.11;nan
43820;BME280;67762;52.476;6.046;2023-05-23T08:34:47;102157.22;;;14.19;nan
43820;BME280;67762;52.476;6.046;2023-05-23T08:37:14;102169.41;;;14.14;nan
43820;BME280;67762;52.476;6.046;2023-05-23T08:39:40;102172.34;;;14.38;nan
43820;BME280;67762;52.476;6.046;2023-05-23T08:42:21;102178.03;;;14.60;nan
43820;BME280;67762;52.476;6.046;2023-05-23T08:44:47;102174.53;;;14.60;nan
43820;BME280;67762;52.476;6.046;2023-05-23T08:47:13;102178.94;;;14.43;nan
43820;BME280;67762;52.476;6.046;2023-05-23T08:49:55;102190.06;;;14.48;nan
43820;BME280;67762;52.476;6.046;2023-05-23T08:52:24;102178.97;;;14.77;nan
43820;BME280;67762;52.476;6.046;2023-05-23T08:54:54;102184.09;;;14.88;nan
43820;BME280;67762;52.476;6.046;2023-05-23T08:57:21;102179.16;;;15.43;nan
43820;BME280;67762;52.476;6.046;2023-05-23T08:59:53;102183.03;;;15.99;nan
43820;BME280;67762;52.476;6.046;2023-05-23T09:02:21;102179.81;;;16.03;nan
43820;BME280;67762;52.476;6.046;2023-05-23T09:04:48;102189.06;;;16.01;nan
43820;BME280;67762;52.476;6.046;2023-05-23T09:07:18;102181.84;;;15.93;nan
43820;BME280;67762;52.476;6.046;2023-05-23T09:09:45;102187.31;;;15.67;nan
43820;BME280;67762;52.476;6.046;2023-05-23T09:12:13;102187.75;;;15.47;nan
43820;BME280;67762;52.476;6.046;2023-05-23T09:14:41;102185.72;;;15.41;nan
43820;BME280;67762;52.476;6.046;2023-05-23T09:17:07;102186.47;;;15.67;nan
43820;BME280;67762;52.476;6.046;2023-05-23T09:19:39;102180.47;;;16.05;nan
43820;BME280;67762;52.476;6.046;2023-05-23T09:22:22;102198.34;;;16.22;nan
43820;BME280;67762;52.476;6.046;2023-05-23T09:24:57;102200.56;;;16.27;nan
43820;BME280;67762;52.476;6.046;2023-05-23T09:27:25;102193.97;;;16.46;nan
43820;BME280;67762;52.476;6.046;2023-05-23T09:29:51;102183.53;;;16.43;nan
43820;BME280;67762;52.476;6.046;2023-05-23T09:32:19;102186.38;;;16.25;nan
43820;BME280;67762;52.476;6.046;2023-05-23T09:35:00;102201.88;;;16.63;nan
43820;BME280;67762;52.476;6.046;2023-05-23T09:37:33;102206.56;;;16.93;nan
43820;BME280;67762;52.476;6.046;2023-05-23T09:40:00;102206.13;;;16.66;nan
43820;BME280;67762;52.476;6.046;2023-05-23T09:42:31;102201.69;;;16.89;nan
43820;BME280;67762;52.476;6.046;2023-05-23T09:45:00;102212.03;;;17.16;nan
43820;BME280;67762;52.476;6.046;2023-05-23T09:47:28;102208.69;;;17.53;nan
43820;BME280;67762;52.476;6.046;2023-05-23T09:49:54;102203.03;;;17.40;nan
43820;BME280;67762;52.476;6.046;2023-05-23T09:52:20;102185.31;;;16.99;nan
43820;BME280;67762;52.476;6.046;2023-05-23T09:54:46;102212.84;;;16.54;nan
43820;BME280;67762;52.476;6.046;2023-05-23T09:57:13;102211.47;;;16.25;nan
43820;BME280;67762;52.476;6.046;2023-05-23T09:59:40;102208.97;;;16.16;nan
43820;BME280;67762;52.476;6.046;2023-05-23T10:02:10;102207.25;;;16.15;nan
43820;BME280;67762;52.476;6.046;2023-05-23T10:04:38;102217.53;;;16.11;nan
43820;BME280;67762;52.476;6.046;2023-05-23T10:07:12;102208.25;;;16.14;nan
43820;BME280;67762;52.476;6.046;2023-05-23T10:09:45;102214.34;;;16.64;nan
43820;BME280;67762;52.476;6.046;2023-05-23T10:15:04;61604.63;;;-141.99;100.00
43820;BME280;67762;52.476;6.046;2023-05-23T10:20:14;102200.06;;;17.19;nan
43820;BME280;67762;52.476;6.046;2023-05-23T10:22:41;102202.25;;;16.68;nan
43820;BME280;67762;52.476;6.046;2023-05-23T10:25:08;102210.13;;;16.46;nan
43820;BME280;67762;52.476;6.046;2023-05-23T10:27:36;102207.72;;;16.91;nan
43820;BME280;67762;52.476;6.046;2023-05-23T10:30:03;102206.53;;;17.57;nan
43820;BME280;67762;52.476;6.046;2023-05-23T10:32:30;102213.19;;;17.69;nan
43820;BME280;67762;52.476;6.046;2023-05-23T10:38:11;102223.91;;;17.54;nan
43820;BME280;67762;52.476;6.046;2023-05-23T10:40:54;102223.97;;;17.38;nan
43820;BME280;67762;52.476;6.046;2023-05-23T10:43:49;102227.72;;;17.68;nan
43820;BME280;67762;52.476;6.046;2023-05-23T10:46:18;102233.22;;;18.05;nan
43820;BME280;67762;52.476;6.046;2023-05-23T10:48:45;102228.53;;;18.30;nan
43820;BME280;67762;52.476;6.046;2023-05-23T10:51:13;102219.22;;;18.09;nan
43820;BME280;67762;52.476;6.046;2023-05-23T10:53:41;102228.69;;;17.75;nan
43820;BME280;67762;52.476;6.046;2023-05-23T10:56:09;102229.94;;;18.18;nan
43820;BME280;67762;52.476;6.046;2023-05-23T10:58:37;102219.00;;;18.34;nan
43820;BME280;67762;52.476;6.046;2023-05-23T11:01:08;102236.72;;;17.60;nan
43820;BME280;67762;52.476;6.046;2023-05-23T11:03:48;102218.97;;;17.11;nan
43820;BME280;67762;52.476;6.046;2023-05-23T11:06:37;102232.69;;;16.93;nan
43820;BME280;67762;52.476;6.046;2023-05-23T11:09:16;102241.47;;;16.79;nan
43820;BME280;67762;52.476;6.046;2023-05-23T11:12:06;102239.22;;;17.07;nan
43820;BME280;67762;52.476;6.046;2023-05-23T11:17:14;102234.06;;;16.49;nan
43820;BME280;67762;52.476;6.046;2023-05-23T11:20:06;102231.69;;;16.46;nan
43820;BME280;67762;52.476;6.046;2023-05-23T11:22:34;102245.31;;;16.52;nan
43820;BME280;67762;52.476;6.046;2023-05-23T11:25:05;102240.25;;;16.25;nan
43820;BME280;67762;52.476;6.046;2023-05-23T11:27:35;102238.91;;;16.13;nan
43820;BME280;67762;52.476;6.046;2023-05-23T11:30:16;102249.38;;;16.24;nan
43820;BME280;67762;52.476;6.046;2023-05-23T11:32:49;102233.03;;;16.82;nan
43820;BME280;67762;52.476;6.046;2023-05-23T11:35:15;102252.41;;;16.93;nan
43820;BME280;67762;52.476;6.046;2023-05-23T11:37:42;102256.94;;;17.01;nan
43820;BME280;67762;52.476;6.046;2023-05-23T11:40:24;102239.25;;;16.99;nan
43820;BME280;67762;52.476;6.046;2023-05-23T11:42:50;102251.88;;;17.53;nan
43820;BME280;67762;52.476;6.046;2023-05-23T11:45:23;102246.47;;;17.53;nan
43820;BME280;67762;52.476;6.046;2023-05-23T11:47:49;102250.47;;;17.26;nan
43820;BME280;67762;52.476;6.046;2023-05-23T11:50:15;102253.41;;;16.92;nan
43820;BME280;67762;52.476;6.046;2023-05-23T11:52:41;102243.00;;;16.57;nan
43820;BME280;67762;52.476;6.046;2023-05-23T11:55:07;102244.97;;;16.39;nan
43820;BME280;67762;52.476;6.046;2023-05-23T11:57:39;102244.19;;;16.55;nan
43820;BME280;67762;52.476;6.046;2023-05-23T12:00:06;102247.31;;;17.15;nan
43820;BME280;67762;52.476;6.046;2023-05-23T12:02:40;102242.88;;;17.22;nan
43820;BME280;67762;52.476;6.046;2023-05-23T12:05:10;102246.16;;;17.01;nan
43820;BME280;67762;52.476;6.046;2023-05-23T12:07:42;102250.88;;;16.83;nan
43820;BME280;67762;52.476;6.046;2023-05-23T12:10:09;102253.25;;;16.78;nan
43820;BME280;67762;52.476;6.046;2023-05-23T12:12:35;102252.41;;;16.85;nan
43820;BME280;67762;52.476;6.046;2023-05-23T12:15:01;102253.47;;;17.39;nan
43820;BME280;67762;52.476;6.046;2023-05-23T12:17:27;102247.31;;;18.23;nan
43820;BME280;67762;52.476;6.046;2023-05-23T12:19:52;61604.63;;;-141.99;100.00
43820;BME280;67762;52.476;6.046;2023-05-23T12:22:22;61604.63;;;-141.99;100.00
43820;BME280;67762;52.476;6.046;2023-05-23T12:24:55;61604.63;;;-141.99;100.00
43820;BME280;67762;52.476;6.046;2023-05-23T12:27:27;61604.63;;;-141.99;100.00
43820;BME280;67762;52.476;6.046;2023-05-23T12:30:23;61604.63;;;-141.99;100.00
43820;BME280;67762;52.476;6.046;2023-05-23T12:32:49;61604.63;;;-141.99;100.00
43820;BME280;67762;52.476;6.046;2023-05-23T12:35:14;61604.63;;;-141.99;100.00
43820;BME280;67762;52.476;6.046;2023-05-23T12:37:43;61604.63;;;-141.99;100.00
43820;BME280;67762;52.476;6.046;2023-05-23T12:42:54;61604.63;;;-141.99;100.00
43820;BME280;67762;52.476;6.046;2023-05-23T12:45:40;61604.63;;;-141.99;100.00
43820;BME280;67762;52.476;6.046;2023-05-23T12:48:06;61604.63;;;-141.99;100.00
43820;BME280;67762;52.476;6.046;2023-05-23T12:50:32;61604.63;;;-141.99;100.00
43820;BME280;67762;52.476;6.046;2023-05-23T12:52:58;61604.63;;;-141.99;100.00
43820;BME280;67762;52.476;6.046;2023-05-23T12:55:23;61604.63;;;-141.99;100.00
43820;BME280;67762;52.476;6.046;2023-05-23T12:57:49;61604.63;;;-141.99;100.00
43820;BME280;67762;52.476;6.046;2023-05-23T13:00:15;61604.63;;;-141.99;100.00
43820;BME280;67762;52.476;6.046;2023-05-23T13:02:41;61604.63;;;-141.99;100.00
43820;BME280;67762;52.476;6.046;2023-05-23T13:05:07;61604.63;;;-141.99;100.00
43820;BME280;67762;52.476;6.046;2023-05-23T13:07:33;61604.63;;;-141.99;100.00
43820;BME280;67762;52.476;6.046;2023-05-23T13:10:00;61604.63;;;-141.99;100.00
43820;BME280;67762;52.476;6.046;2023-05-23T13:12:26;61604.63;;;-141.99;100.00
43820;BME280;67762;52.476;6.046;2023-05-23T13:14:51;61604.63;;;-141.99;100.00
43820;BME280;67762;52.476;6.046;2023-05-23T13:17:17;61604.63;;;-141.99;100.00
43820;BME280;67762;52.476;6.046;2023-05-23T13:19:43;61604.63;;;-141.99;100.00
43820;BME280;67762;52.476;6.046;2023-05-23T13:22:08;61604.63;;;-141.99;100.00
43820;BME280;67762;52.476;6.046;2023-05-23T13:24:37;61604.63;;;-141.99;100.00
43820;BME280;67762;52.476;6.046;2023-05-23T13:27:04;61604.63;;;-141.99;100.00
43820;BME280;67762;52.476;6.046;2023-05-23T13:29:30;61604.63;;;-141.99;100.00
43820;BME280;67762;52.476;6.046;2023-05-23T13:31:56;61604.63;;;-141.99;100.00
43820;BME280;67762;52.476;6.046;2023-05-23T13:34:22;61604.63;;;-141.99;100.00
43820;BME280;67762;52.476;6.046;2023-05-23T13:36:48;61604.63;;;-141.99;100.00